Time;durP1;ratioP1;P1;durP2;ratioP2;P2;SDS_P1;SDS_P2;PMS_P1;PMS_P2;Temp;Humidity;BMP_temperature;BMP_pressure;BME280_temperature;BME280_humidity;BME280_pressure;Samples;Min_cycle;Max_cycle;Signal;HPM_P1;HPM_P2
2021/09/21 00:03:49;;;;;;;87.33;57.33;;;15.30;94.40;;;;;;4958704;29;20439;-85
2021/09/21 00:09:48;;;;;;;91.23;65.13;;;15.30;94.20;;;;;;4964286;29;20179;-85
2021/09/21 00:15:49;;;;;;;95.00;73.13;;;15.30;94.50;;;;;;4961325;29;20416;-85
2021/09/21 00:22:30;;;;;;;89.47;59.03;;;15.30;94.10;;;;;;4957277;28;20426;-85
2021/09/21 00:24:59;;;;;;;87.70;59.20;;;15.20;94.00;;;;;;5017868;28;20499;-85
2021/09/21 00:28:06;;;;;;;93.43;75.20;;;15.10;94.10;;;;;;5040193;28;20474;-85
2021/09/21 00:31:11;;;;;;;103.67;87.30;;;15.10;94.20;;;;;;4960741;29;20483;-85
2021/09/21 00:37:35;;;;;;;;;;;;;;;;;;;;;
2021/09/21 00:39:55;;;;;;;95.13;80.90;;;15.00;94.70;;;;;;5117823;22;20480;-84
2021/09/21 00:42:29;;;;;;;89.83;68.57;;;15.10;94.00;;;;;;5046312;28;20400;-84
2021/09/21 00:45:00;;;;;;;96.93;74.27;;;15.00;93.40;;;;;;5044418;28;20232;-84
2021/09/21 00:47:27;;;;;;;98.07;85.37;;;15.00;93.40;;;;;;5048212;28;20512;-84
2021/09/21 00:49:53;;;;;;;101.77;83.70;;;15.00;93.60;;;;;;5065162;28;20419;-84
2021/09/21 00:52:19;;;;;;;108.27;95.73;;;15.00;93.70;;;;;;5047207;28;20407;-84
2021/09/21 00:54:46;;;;;;;93.33;73.17;;;15.00;93.70;;;;;;5065275;28;20458;-84
2021/09/21 00:57:12;;;;;;;89.30;65.43;;;15.00;93.50;;;;;;5064608;28;20423;-84
2021/09/21 00:59:39;;;;;;;101.60;84.57;;;15.00;93.00;;;;;;5063853;28;20399;-84
2021/09/21 01:02:04;;;;;;;92.63;73.47;;;15.00;93.60;;;;;;5063825;28;20410;-84
2021/09/21 01:04:30;;;;;;;102.20;86.90;;;15.00;93.70;;;;;;5045835;28;20407;-84
2021/09/21 01:06:56;;;;;;;87.47;54.47;;;15.20;93.60;;;;;;5064133;28;20580;-84
2021/09/21 01:09:24;;;;;;;85.90;53.57;;;15.20;92.70;;;;;;5064266;28;20415;-84
2021/09/21 01:11:53;;;;;;;85.83;54.07;;;15.10;92.10;;;;;;5045819;28;20637;-84
2021/09/21 01:14:19;;;;;;;91.23;68.33;;;15.20;92.10;;;;;;5064328;28;20458;-84
2021/09/21 01:16:46;;;;;;;87.20;60.80;;;15.30;90.60;;;;;;5045695;28;20429;-84
2021/09/21 01:19:13;;;;;;;88.97;66.07;;;15.40;90.80;;;;;;5064735;28;20455;-84
2021/09/21 01:21:41;;;;;;;87.20;60.67;;;15.30;89.90;;;;;;5063155;28;20739;-84
2021/09/21 01:24:08;;;;;;;86.80;59.90;;;15.30;90.60;;;;;;5045549;28;20482;-84
2021/09/21 01:26:34;;;;;;;87.63;50.60;;;15.20;89.40;;;;;;5064627;28;20420;-83
2021/09/21 01:29:00;;;;;;;86.23;54.10;;;15.10;91.30;;;;;;5063957;28;20402;-84
2021/09/21 01:31:25;;;;;;;86.23;53.80;;;15.00;91.40;;;;;;5064109;28;20403;-84
2021/09/21 01:33:52;;;;;;;85.93;55.33;;;15.10;91.60;;;;;;5063737;28;20942;-84
2021/09/21 01:36:21;;;;;;;82.67;47.87;;;15.00;91.50;;;;;;5062822;28;20168;-84
2021/09/21 01:38:47;;;;;;;85.00;53.47;;;15.00;91.80;;;;;;5064571;28;20429;-84
2021/09/21 01:41:13;;;;;;;87.57;58.33;;;15.00;91.00;;;;;;5045860;28;20412;-84
2021/09/21 01:43:42;;;;;;;83.93;48.60;;;15.00;91.60;;;;;;5045896;28;20931;-84
2021/09/21 01:46:09;;;;;;;85.00;52.80;;;15.00;91.60;;;;;;5063444;28;20918;-84
2021/09/21 01:48:34;;;;;;;85.60;53.47;;;15.10;91.80;;;;;;5044870;28;20934;-84
2021/09/21 01:51:06;;;;;;;86.93;60.83;;;15.10;91.10;;;;;;5063911;28;20411;-84
2021/09/21 01:53:58;;;;;;;89.00;61.43;;;15.20;90.80;;;;;;5045666;28;20193;-84
2021/09/21 01:59:08;;;;;;;88.03;63.63;;;15.10;91.00;;;;;;5062544;28;20384;-84
2021/09/21 02:01:35;;;;;;;85.77;58.20;;;15.20;91.00;;;;;;5063053;28;20403;-84
2021/09/21 02:04:05;;;;;;;83.37;49.43;;;15.20;91.20;;;;;;5062930;28;20160;-84
2021/09/21 02:06:39;;;;;;;87.97;60.47;;;15.20;91.00;;;;;;5063184;28;20428;-84
2021/09/21 02:09:08;;;;;;;87.90;60.80;;;15.20;91.40;;;;;;5062360;28;20857;-84
2021/09/21 02:11:34;;;;;;;87.27;61.33;;;15.20;91.10;;;;;;5062893;28;20473;-84
2021/09/21 02:14:01;;;;;;;93.23;65.00;;;15.10;90.60;;;;;;5044315;28;20460;-84
2021/09/21 02:16:28;;;;;;;86.90;61.17;;;15.10;90.80;;;;;;5045012;28;20466;-84
2021/09/21 02:18:55;;;;;;;92.30;66.30;;;15.10;91.00;;;;;;5062398;28;20395;-83
2021/09/21 02:21:21;;;;;;;87.00;55.33;;;15.10;90.90;;;;;;5063100;28;20430;-84
2021/09/21 02:23:49;;;;;;;87.97;55.33;;;15.20;92.10;;;;;;5062490;28;20474;-84
2021/09/21 02:26:15;;;;;;;90.17;64.10;;;15.10;92.60;;;;;;5062703;28;20405;-84
2021/09/21 02:28:41;;;;;;;89.00;59.73;;;15.20;92.50;;;;;;5063148;28;20407;-84
2021/09/21 02:31:06;;;;;;;87.37;56.57;;;15.20;92.60;;;;;;5062816;28;20170;-84
2021/09/21 02:33:32;;;;;;;86.33;58.63;;;15.20;93.00;;;;;;5062234;28;20690;-84
2021/09/21 02:35:58;;;;;;;86.07;56.30;;;15.30;92.90;;;;;;5044784;28;20173;-84
2021/09/21 02:38:24;;;;;;;87.97;61.47;;;15.30;92.60;;;;;;5062852;28;20291;-84
2021/09/21 02:40:50;;;;;;;90.07;71.00;;;15.20;91.70;;;;;;5062551;28;20184;-84
2021/09/21 02:43:16;;;;;;;88.13;64.97;;;15.20;91.80;;;;;;5062289;28;20794;-84
2021/09/21 02:45:42;;;;;;;83.70;49.87;;;15.20;91.30;;;;;;5044467;28;20416;-84
2021/09/21 02:48:07;;;;;;;86.53;57.07;;;15.20;91.90;;;;;;5062376;28;20427;-84
2021/09/21 02:50:34;;;;;;;89.17;63.27;;;15.30;91.90;;;;;;5062245;28;20168;-84
2021/09/21 02:53:00;;;;;;;90.43;59.63;;;15.20;92.10;;;;;;5044054;28;20700;-84
2021/09/21 02:55:26;;;;;;;92.07;67.10;;;15.20;92.90;;;;;;5061706;28;20408;-84
2021/09/21 02:57:52;;;;;;;89.57;63.23;;;15.30;92.80;;;;;;5062131;28;20423;-84
2021/09/21 03:00:25;;;;;;;84.67;52.50;;;15.30;92.60;;;;;;5044175;28;20196;-84
2021/09/21 03:02:52;;;;;;;83.97;52.23;;;15.30;92.30;;;;;;5044607;28;20247;-84
2021/09/21 03:05:22;;;;;;;85.67;55.50;;;15.00;92.50;;;;;;5061952;28;20412;-84
2021/09/21 03:08:02;;;;;;;84.40;49.80;;;15.00;93.50;;;;;;5062351;28;20420;-84
2021/09/21 03:10:38;;;;;;;85.47;52.73;;;15.00;93.20;;;;;;5062048;28;20525;-84
2021/09/21 03:18:40;;;;;;;87.97;56.47;;;14.90;93.90;;;;;;5096878;22;20482;-84
2021/09/21 03:21:06;;;;;;;84.50;49.87;;;14.80;93.90;;;;;;5043540;28;20402;-84
2021/09/21 03:23:31;;;;;;;95.50;67.03;;;14.90;93.60;;;;;;5042612;28;20420;-84
2021/09/21 03:25:57;;;;;;;88.90;57.77;;;14.90;94.00;;;;;;5063213;28;20627;-84
2021/09/21 03:28:23;;;;;;;84.20;51.60;;;15.00;93.30;;;;;;5045623;28;20434;-84
2021/09/21 03:30:49;;;;;;;88.63;61.10;;;15.10;92.20;;;;;;5045977;28;20186;-84
2021/09/21 03:33:14;;;;;;;85.37;50.37;;;15.10;92.30;;;;;;5062484;28;20218;-84
2021/09/21 03:35:40;;;;;;;85.37;54.07;;;15.20;92.10;;;;;;5062293;28;20521;-84
2021/09/21 03:38:06;;;;;;;89.77;63.03;;;15.20;91.90;;;;;;5062896;28;20420;-84
2021/09/21 03:40:32;;;;;;;93.77;73.93;;;15.10;92.90;;;;;;5063288;28;20584;-84
2021/09/21 03:42:58;;;;;;;93.53;67.90;;;15.20;92.80;;;;;;5062688;28;20191;-84
2021/09/21 03:45:24;;;;;;;88.40;59.47;;;15.20;92.40;;;;;;5062071;28;20244;-84
2021/09/21 03:47:50;;;;;;;91.43;68.27;;;15.20;92.10;;;;;;5062162;28;20922;-84
2021/09/21 03:50:16;;;;;;;93.80;69.80;;;15.10;93.10;;;;;;5064075;28;20421;-84
2021/09/21 03:52:42;;;;;;;93.07;74.43;;;15.00;93.20;;;;;;5062762;28;20400;-84
2021/09/21 03:55:09;;;;;;;95.97;72.77;;;14.90;93.90;;;;;;5045135;28;20786;-84
2021/09/21 03:57:35;;;;;;;116.20;104.37;;;15.00;93.60;;;;;;5045010;28;20195;-83
2021/09/21 04:00:01;;;;;;;131.20;118.93;;;15.00;94.20;;;;;;5044800;28;20412;-83
2021/09/21 04:02:26;;;;;;;142.33;129.43;;;14.90;94.90;;;;;;5062557;28;20248;-83
2021/09/21 04:04:52;;;;;;;133.47;120.60;;;15.10;94.60;;;;;;5063129;28;20178;-84
2021/09/21 04:07:18;;;;;;;119.03;107.70;;;15.20;94.30;;;;;;5045205;28;20196;-84
2021/09/21 04:09:43;;;;;;;134.63;122.60;;;15.20;94.60;;;;;;5063486;28;20200;-84
2021/09/21 04:12:09;;;;;;;128.50;116.63;;;15.20;94.60;;;;;;5063141;28;20196;-84
2021/09/21 04:14:35;;;;;;;145.47;132.70;;;15.20;95.20;;;;;;5062889;28;20288;-84
2021/09/21 04:17:00;;;;;;;144.93;132.30;;;15.20;95.40;;;;;;5066587;28;20185;-84
2021/09/21 04:19:26;;;;;;;130.00;118.20;;;15.20;95.70;;;;;;5048577;28;20182;-84
2021/09/21 04:21:52;;;;;;;136.37;123.93;;;15.10;95.70;;;;;;5066883;28;20162;-84
2021/09/21 04:24:18;;;;;;;121.70;110.20;;;15.10;95.50;;;;;;5067438;28;20177;-84
2021/09/21 04:26:43;;;;;;;121.13;109.70;;;15.10;96.30;;;;;;5066957;28;20504;-84
2021/09/21 04:29:10;;;;;;;121.83;109.97;;;15.00;96.90;;;;;;5067097;28;20164;-84
2021/09/21 04:31:40;;;;;;;108.53;97.47;;;14.90;97.50;;;;;;5066355;28;20354;-84
2021/09/21 04:34:06;;;;;;;96.23;84.43;;;14.90;98.10;;;;;;5067130;28;20449;-84
2021/09/21 04:36:31;;;;;;;94.23;81.30;;;14.70;98.80;;;;;;5065817;28;20841;-83
2021/09/21 04:38:57;;;;;;;114.43;103.17;;;14.80;98.60;;;;;;5066069;28;20194;-84
2021/09/21 04:41:24;;;;;;;128.60;116.70;;;14.80;98.60;;;;;;5066827;28;20161;-84
2021/09/21 04:43:50;;;;;;;118.17;106.87;;;14.70;98.00;;;;;;5065856;28;20194;-84
2021/09/21 04:46:15;;;;;;;107.80;96.90;;;14.60;97.10;;;;;;5066411;28;20408;-84
2021/09/21 04:48:41;;;;;;;112.33;101.33;;;14.70;97.70;;;;;;5065245;28;20758;-84
2021/09/21 04:51:07;;;;;;;126.07;114.27;;;14.70;96.40;;;;;;5047737;28;20406;-84
2021/09/21 04:53:33;;;;;;;102.73;91.80;;;14.60;97.00;;;;;;5065182;28;20192;-84
2021/09/21 04:55:59;;;;;;;111.90;100.70;;;14.60;96.70;;;;;;5064658;28;20410;-84
2021/09/21 04:58:25;;;;;;;113.40;102.10;;;14.70;96.30;;;;;;5047297;28;20450;-84
2021/09/21 05:00:50;;;;;;;100.13;80.87;;;14.80;95.70;;;;;;5064958;28;20157;-84
2021/09/21 05:03:16;;;;;;;98.70;88.00;;;14.80;94.90;;;;;;5065834;28;20191;-84
2021/09/21 05:05:42;;;;;;;95.23;80.60;;;14.80;95.10;;;;;;5065271;28;20713;-84
2021/09/21 05:08:08;;;;;;;91.10;69.53;;;14.80;94.50;;;;;;5064198;28;20481;-84
2021/09/21 05:10:34;;;;;;;94.27;81.07;;;14.90;94.30;;;;;;5065177;28;20404;-84
2021/09/21 05:12:59;;;;;;;117.50;106.00;;;14.80;94.10;;;;;;5065311;28;20311;-84
2021/09/21 05:15:26;;;;;;;110.00;98.97;;;14.90;94.80;;;;;;5064888;28;20181;-83
2021/09/21 05:17:52;;;;;;;114.30;102.87;;;14.90;94.80;;;;;;5064807;28;20255;-83
2021/09/21 05:20:18;;;;;;;109.90;98.57;;;14.80;95.20;;;;;;5064891;28;20380;-84
2021/09/21 05:22:51;;;;;;;102.30;91.50;;;14.80;95.30;;;;;;5046349;28;20928;-84
2021/09/21 05:25:18;;;;;;;107.97;96.43;;;14.60;95.30;;;;;;5065421;28;20455;-84
2021/09/21 05:27:44;;;;;;;96.57;85.97;;;14.50;95.40;;;;;;5062771;28;20425;-84
2021/09/21 05:30:10;;;;;;;105.83;93.20;;;14.30;96.70;;;;;;5064693;28;20427;-84
2021/09/21 05:32:36;;;;;;;103.30;92.47;;;14.30;97.00;;;;;;5047175;28;20160;-84
2021/09/21 05:35:02;;;;;;;106.40;89.03;;;14.20;97.70;;;;;;5064877;28;20507;-84
2021/09/21 05:37:30;;;;;;;102.97;92.17;;;14.30;97.80;;;;;;5064590;28;20238;-85
2021/09/21 05:39:56;;;;;;;93.00;79.50;;;14.20;98.40;;;;;;5066499;28;20406;-85
2021/09/21 05:42:21;;;;;;;91.37;73.33;;;14.20;98.20;;;;;;5048517;28;20783;-85
2021/09/21 05:44:47;;;;;;;100.77;90.07;;;14.20;98.00;;;;;;5047845;28;20410;-85
2021/09/21 05:47:13;;;;;;;97.40;86.73;;;14.30;97.50;;;;;;5046794;28;20567;-85
2021/09/21 05:49:39;;;;;;;102.90;92.07;;;14.30;96.50;;;;;;5064379;28;20230;-85
2021/09/21 05:52:05;;;;;;;100.07;89.43;;;14.30;96.50;;;;;;5046593;28;20175;-85
2021/09/21 05:54:31;;;;;;;100.00;89.33;;;14.20;97.00;;;;;;5046196;28;20455;-85
2021/09/21 05:56:57;;;;;;;103.07;92.03;;;14.20;97.50;;;;;;5066184;28;20423;-85
2021/09/21 05:59:23;;;;;;;105.70;94.77;;;14.30;97.10;;;;;;5051752;28;20414;-85
2021/09/21 06:01:49;;;;;;;104.80;93.70;;;14.30;97.00;;;;;;5050331;28;20173;-85
2021/09/21 06:04:15;;;;;;;103.43;92.53;;;14.20;97.20;;;;;;5047267;28;20248;-86
2021/09/21 06:06:44;;;;;;;100.57;89.77;;;14.30;96.90;;;;;;5036757;28;20559;-86
2021/09/21 06:09:12;;;;;;;90.93;67.43;;;14.40;97.10;;;;;;5054569;28;20413;-86
2021/09/21 06:11:38;;;;;;;95.33;83.70;;;14.50;96.60;;;;;;5055159;28;20894;-86
2021/09/21 06:14:06;;;;;;;93.83;70.00;;;14.60;96.50;;;;;;5054285;28;20449;-86
2021/09/21 06:16:32;;;;;;;87.03;57.63;;;14.70;96.40;;;;;;5054502;28;20185;-86
2021/09/21 06:18:57;;;;;;;89.57;67.07;;;14.70;96.60;;;;;;5054268;28;20985;-86
2021/09/21 06:21:25;;;;;;;96.77;66.90;;;14.80;97.20;;;;;;5054135;28;20504;-86
2021/09/21 06:23:55;;;;;;;88.00;60.80;;;14.70;97.90;;;;;;5036476;28;20172;-86
2021/09/21 06:26:21;;;;;;;85.17;49.10;;;14.70;97.90;;;;;;5036125;28;20455;-86
2021/09/21 06:28:47;;;;;;;82.67;48.47;;;14.70;98.90;;;;;;5054247;28;20479;-86
2021/09/21 06:31:12;;;;;;;99.83;88.90;;;14.60;99.50;;;;;;5054356;28;20438;-86
2021/09/21 06:33:38;;;;;;;91.23;70.73;;;14.60;97.50;;;;;;5036475;28;20200;-85
2021/09/21 06:36:04;;;;;;;82.80;48.30;;;14.40;97.80;;;;;;5054297;28;20172;-86
2021/09/21 06:38:40;;;;;;;104.37;93.27;;;14.50;99.50;;;;;;5120717;23;20221;-83
2021/09/21 06:41:06;;;;;;;111.90;100.70;;;14.60;97.10;;;;;;5019734;28;20393;-84
2021/09/21 06:43:35;;;;;;;117.57;106.17;;;14.50;96.60;;;;;;5019702;28;20770;-83
2021/09/21 06:46:04;;;;;;;118.40;106.50;;;14.50;96.70;;;;;;5019549;28;20169;-83
2021/09/21 06:48:29;;;;;;;113.97;102.80;;;14.50;96.20;;;;;;5036552;28;20431;-83
2021/09/21 06:50:55;;;;;;;95.63;83.77;;;14.60;96.00;;;;;;5036680;28;20400;-83
2021/09/21 06:53:21;;;;;;;93.50;78.97;;;14.70;95.30;;;;;;5036946;28;20196;-84
2021/09/21 06:55:49;;;;;;;85.67;56.83;;;14.80;94.60;;;;;;5036879;28;20172;-84
2021/09/21 06:58:14;;;;;;;84.53;51.13;;;14.90;94.40;;;;;;5019481;28;20432;-84
2021/09/21 07:00:45;;;;;;;82.50;49.20;;;14.90;92.40;;;;;;5037193;28;20435;-84
2021/09/21 07:03:11;;;;;;;80.47;40.77;;;14.90;90.40;;;;;;5018884;28;20564;-84
2021/09/21 07:05:37;;;;;;;79.47;37.90;;;14.70;91.70;;;;;;5019101;28;20416;-82
2021/09/21 07:08:03;;;;;;;83.57;47.83;;;14.80;91.50;;;;;;5018575;28;20193;-84
2021/09/21 07:10:32;;;;;;;89.30;65.83;;;14.80;91.00;;;;;;5019193;28;20169;-84
2021/09/21 07:12:58;;;;;;;87.73;64.67;;;14.90;89.90;;;;;;5036379;28;20400;-84
2021/09/21 07:15:27;;;;;;;84.63;55.00;;;14.80;89.10;;;;;;5036108;28;20851;-83
2021/09/21 07:17:54;;;;;;;88.77;67.70;;;14.70;89.40;;;;;;5019160;28;20184;-84
2021/09/21 07:20:21;;;;;;;87.77;59.97;;;14.70;86.80;;;;;;5036880;28;20396;-84
2021/09/21 07:22:57;;;;;;;88.43;57.93;;;14.60;86.70;;;;;;5018740;28;20416;-83
2021/09/21 07:25:24;;;;;;;85.07;60.43;;;14.60;83.40;;;;;;5035353;28;20431;-84
2021/09/21 07:27:52;;;;;;;80.70;47.37;;;14.60;86.20;;;;;;5017977;28;20915;-83
2021/09/21 07:30:21;;;;;;;81.13;45.50;;;14.60;81.80;;;;;;5035944;28;20399;-83
2021/09/21 07:32:47;;;;;;;581.20;546.07;;;14.50;78.70;;;;;;5018153;28;20412;-83
2021/09/21 07:35:13;;;;;;;86.57;58.17;;;14.50;81.50;;;;;;5018683;28;20998;-84
2021/09/21 07:37:39;;;;;;;78.60;38.63;;;14.50;83.40;;;;;;5017874;28;20428;-84
2021/09/21 07:40:07;;;;;;;82.70;53.67;;;14.60;79.30;;;;;;5018138;28;20196;-83
2021/09/21 07:42:32;;;;;;;87.13;57.77;;;14.70;82.20;;;;;;5017411;28;20171;-83
2021/09/21 07:45:00;;;;;;;86.80;57.70;;;14.80;81.60;;;;;;5018014;28;20992;-84
2021/09/21 07:47:27;;;;;;;88.13;58.33;;;14.60;81.00;;;;;;5035446;28;20455;-83
2021/09/21 07:49:56;;;;;;;88.87;68.07;;;14.70;84.00;;;;;;5019056;28;20419;-83
2021/09/21 07:52:28;;;;;;;81.90;46.87;;;14.80;83.50;;;;;;5039656;28;20470;-85
2021/09/21 07:54:56;;;;;;;78.60;39.60;;;14.70;76.90;;;;;;5039322;28;20495;-83
2021/09/21 07:57:23;;;;;;;94.37;80.13;;;14.80;79.10;;;;;;5022012;28;20432;-84
2021/09/21 07:59:49;;;;;;;88.27;53.07;;;14.90;73.70;;;;;;5039419;28;20411;-84
2021/09/21 08:02:15;;;;;;;92.17;78.53;;;14.90;75.20;;;;;;5039267;28;20396;-83
2021/09/21 08:04:42;;;;;;;120.43;108.93;;;14.80;71.50;;;;;;5038913;28;20223;-84
2021/09/21 08:07:08;;;;;;;84.30;49.63;;;14.90;72.40;;;;;;5039497;28;20739;-84
2021/09/21 08:09:34;;;;;;;84.93;52.20;;;14.90;75.30;;;;;;5038994;28;20405;-83
2021/09/21 08:12:00;;;;;;;85.03;55.27;;;14.90;73.70;;;;;;5020967;28;20400;-83
2021/09/21 08:14:26;;;;;;;86.50;59.83;;;15.00;75.90;;;;;;5021454;28;20684;-83
2021/09/21 08:16:51;;;;;;;90.23;62.90;;;15.10;74.60;;;;;;5021276;28;20439;-84
2021/09/21 08:19:17;;;;;;;85.67;59.80;;;15.10;74.00;;;;;;5041632;28;20257;-84
2021/09/21 08:21:43;;;;;;;151.77;139.17;;;15.20;73.30;;;;;;5022608;28;20653;-84
2021/09/21 08:24:09;;;;;;;128.97;117.20;;;15.10;70.10;;;;;;5041666;28;20517;-84
2021/09/21 08:26:34;;;;;;;172.37;158.90;;;15.20;71.40;;;;;;5041577;28;20195;-84
2021/09/21 08:29:00;;;;;;;99.60;81.20;;;15.20;70.70;;;;;;5024248;28;20174;-84
2021/09/21 08:31:26;;;;;;;97.80;86.63;;;15.20;56.50;;;;;;5041940;28;20178;-84
2021/09/21 08:33:51;;;;;;;88.77;64.27;;;15.10;53.80;;;;;;5041362;28;20210;-84
2021/09/21 08:36:18;;;;;;;108.17;96.83;;;15.10;54.40;;;;;;5039645;28;20157;-83
2021/09/21 08:38:43;;;;;;;98.40;84.97;;;15.30;56.40;;;;;;5039839;28;20589;-84
2021/09/21 08:41:09;;;;;;;88.70;69.00;;;15.30;44.80;;;;;;5023246;28;20412;-83
2021/09/21 08:43:35;;;;;;;90.57;69.03;;;15.30;48.80;;;;;;5040792;28;20176;-83
2021/09/21 08:46:01;;;;;;;86.17;57.30;;;15.20;51.10;;;;;;5040044;28;20182;-84
2021/09/21 08:48:26;;;;;;;95.30;84.03;;;15.40;53.00;;;;;;5040898;28;20173;-83
2021/09/21 08:50:52;;;;;;;93.20;82.27;;;15.50;50.90;;;;;;5022724;28;20537;-84
2021/09/21 08:53:18;;;;;;;91.53;75.40;;;15.50;46.00;;;;;;5023146;28;20449;-84
2021/09/21 08:55:45;;;;;;;96.10;85.73;;;15.50;46.90;;;;;;5039720;28;20163;-84
2021/09/21 08:58:13;;;;;;;103.47;92.80;;;15.60;44.00;;;;;;5022156;28;20245;-84
2021/09/21 09:00:39;;;;;;;88.57;65.07;;;15.60;45.10;;;;;;5021934;28;20408;-83
2021/09/21 09:03:12;;;;;;;88.17;64.77;;;15.60;46.60;;;;;;5025459;28;20426;-83
2021/09/21 09:05:51;;;;;;;91.07;76.37;;;15.70;47.50;;;;;;5026283;28;20175;-83
2021/09/21 09:08:35;;;;;;;108.97;98.00;;;15.80;46.80;;;;;;5027915;28;20520;-84
2021/09/21 09:11:14;;;;;;;105.57;94.83;;;16.00;43.80;;;;;;5046073;28;20408;-84
2021/09/21 09:13:40;;;;;;;121.80;109.63;;;15.90;42.40;;;;;;5026572;28;20449;-83
2021/09/21 09:16:18;;;;;;;88.97;64.47;;;15.90;42.40;;;;;;5043411;28;20411;-84
2021/09/21 09:18:47;;;;;;;106.67;95.87;;;16.10;44.60;;;;;;5043399;28;20386;-84
2021/09/21 09:21:19;;;;;;;117.10;105.90;;;16.20;42.20;;;;;;5042525;28;20922;-83
2021/09/21 09:23:53;;;;;;;93.47;79.30;;;16.40;40.00;;;;;;5038794;28;20406;-84
2021/09/21 09:26:24;;;;;;;99.80;89.23;;;16.50;38.10;;;;;;5038432;28;20863;-83
2021/09/21 09:28:55;;;;;;;83.43;51.13;;;16.50;37.50;;;;;;5037628;28;20396;-83
2021/09/21 09:31:30;;;;;;;90.30;76.03;;;16.60;31.60;;;;;;5019085;28;20419;-83
2021/09/21 09:34:22;;;;;;;102.33;91.77;;;16.50;33.10;;;;;;5036781;28;20446;-83
2021/09/21 09:36:58;;;;;;;97.27;86.87;;;16.60;34.00;;;;;;5019440;28;20818;-84
2021/09/21 09:39:28;;;;;;;82.93;51.53;;;16.70;36.00;;;;;;5019603;28;20437;-84
2021/09/21 09:41:56;;;;;;;97.57;80.70;;;16.70;30.50;;;;;;5018785;28;20495;-83
2021/09/21 09:44:24;;;;;;;84.53;58.20;;;16.80;32.70;;;;;;5019525;28;20506;-84
2021/09/21 09:46:55;;;;;;;88.40;64.30;;;16.90;34.60;;;;;;5037751;28;20435;-84
2021/09/21 09:49:30;;;;;;;107.33;96.53;;;17.10;26.90;;;;;;5038180;28;20475;-84
2021/09/21 09:52:13;;;;;;;120.63;108.87;;;17.20;15.40;;;;;;5021016;28;20458;-84
2021/09/21 09:54:41;;;;;;;129.00;117.30;;;17.20;11.20;;;;;;5038802;28;20435;-84
2021/09/21 09:57:08;;;;;;;110.97;100.10;;;17.10;11.30;;;;;;5021569;28;20444;-84
2021/09/21 09:59:35;;;;;;;88.17;66.97;;;17.10;7.70;;;;;;5020492;28;20450;-84
2021/09/21 10:02:02;;;;;;;137.53;125.53;;;17.20;5.30;;;;;;5019599;28;20399;-83
2021/09/21 10:04:28;;;;;;;134.57;122.53;;;17.40;8.10;;;;;;5018786;28;20408;-83
2021/09/21 10:06:55;;;;;;;109.27;98.40;;;17.50;6.50;;;;;;5018894;28;20982;-83
2021/09/21 10:09:21;;;;;;;138.00;126.07;;;17.60;9.60;;;;;;5019853;28;20487;-83
2021/09/21 10:11:51;;;;;;;136.80;124.90;;;17.50;6.70;;;;;;5036550;28;20428;-83
2021/09/21 10:14:22;;;;;;;244.50;228.10;;;17.70;7.40;;;;;;5020177;28;20181;-84
2021/09/21 10:17:08;;;;;;;243.27;227.43;;;18.00;1.00;;;;;;5038610;28;20420;-83
2021/09/21 10:19:44;;;;;;;128.70;116.83;;;18.00;1.00;;;;;;5039765;28;20916;-83
2021/09/21 10:22:09;;;;;;;92.47;81.60;;;17.80;1.00;;;;;;5019966;28;20419;-84
2021/09/21 10:24:43;;;;;;;218.30;203.17;;;17.70;1.00;;;;;;5021608;28;20416;-84
2021/09/21 10:27:16;;;;;;;221.97;206.77;;;17.80;1.00;;;;;;5020624;28;20232;-83
2021/09/21 10:29:42;;;;;;;253.40;237.17;;;17.60;1.00;;;;;;5038424;28;20807;-84
2021/09/21 10:32:16;;;;;;;273.60;256.10;;;17.70;1.00;;;;;;5038037;28;20439;-83
2021/09/21 10:34:45;;;;;;;235.57;219.90;;;18.20;1.00;;;;;;5019732;28;20499;-84
2021/09/21 10:37:12;;;;;;;263.10;246.37;;;18.60;1.00;;;;;;5019138;28;20961;-83
2021/09/21 10:39:41;;;;;;;186.80;172.37;;;18.80;1.00;;;;;;5018945;28;20434;-84
2021/09/21 10:42:12;;;;;;;205.30;190.37;;;19.20;1.00;;;;;;5019772;28;20416;-85
2021/09/21 10:44:49;;;;;;;180.13;166.27;;;19.60;1.00;;;;;;5037468;28;20408;-84
2021/09/21 10:47:21;;;;;;;165.67;152.87;;;19.60;1.00;;;;;;5019198;28;20436;-84
2021/09/21 10:49:46;;;;;;;129.73;117.93;;;19.30;1.00;;;;;;5035974;28;20388;-83
2021/09/21 10:52:15;;;;;;;156.03;143.37;;;19.60;1.00;;;;;;5036266;28;20412;-83
2021/09/21 10:54:44;;;;;;;100.70;80.47;;;20.20;1.00;;;;;;5036420;28;20221;-83
2021/09/21 10:57:17;;;;;;;87.00;65.97;;;20.00;1.00;;;;;;5035946;28;20824;-83
2021/09/21 10:59:58;;;;;;;83.30;53.97;;;20.10;1.00;;;;;;5018508;28;20407;-83
2021/09/21 11:02:41;;;;;;;134.27;122.23;;;19.70;1.00;;;;;;5018553;28;20422;-83
2021/09/21 11:05:10;;;;;;;146.73;134.67;;;20.00;1.00;;;;;;5035712;28;20389;-83
2021/09/21 11:07:37;;;;;;;127.43;115.63;;;20.10;1.00;;;;;;5018473;28;20435;-83
2021/09/21 11:10:05;;;;;;;116.50;105.60;;;19.80;1.00;;;;;;5036000;28;20421;-83
2021/09/21 11:12:31;;;;;;;194.63;180.30;;;19.80;1.00;;;;;;5036066;28;20785;-83
2021/09/21 11:15:05;;;;;;;196.27;182.13;;;19.80;1.00;;;;;;5018908;28;20477;-83
2021/09/21 11:17:31;;;;;;;92.87;71.63;;;19.70;1.00;;;;;;5035930;28;20493;-82
2021/09/21 11:19:57;;;;;;;133.93;121.70;;;19.70;1.00;;;;;;5036308;28;20403;-84
2021/09/21 11:22:29;;;;;;;137.37;125.20;;;19.50;1.00;;;;;;5019381;28;20178;-84
2021/09/21 11:25:04;;;;;;;183.63;170.17;;;19.40;1.00;;;;;;5037224;28;20422;-83
2021/09/21 11:27:30;;;;;;;87.47;70.67;;;19.30;1.00;;;;;;5022878;28;20470;-83
2021/09/21 11:30:13;;;;;;;96.20;85.63;;;19.10;1.00;;;;;;5022420;28;20419;-83
2021/09/21 11:32:38;;;;;;;159.93;146.83;;;19.00;1.00;;;;;;5040996;28;20388;-83
2021/09/21 11:35:08;;;;;;;76.70;37.63;;;18.90;1.00;;;;;;5040250;28;20453;-84
2021/09/21 11:37:34;;;;;;;80.87;47.73;;;18.70;1.00;;;;;;5041089;28;20429;-84
2021/09/21 11:40:21;;;;;;;80.63;50.33;;;18.70;1.00;;;;;;5040626;28;20462;-85
2021/09/21 11:42:47;;;;;;;85.43;52.03;;;18.70;1.00;;;;;;5041251;28;20151;-83
2021/09/21 11:45:13;;;;;;;98.83;87.87;;;18.80;1.00;;;;;;5040901;28;20396;-84
2021/09/21 11:47:44;;;;;;;97.90;84.73;;;18.70;1.00;;;;;;5040551;28;20245;-83
2021/09/21 11:50:20;;;;;;;129.77;118.10;;;18.80;1.00;;;;;;5039962;28;20181;-83
2021/09/21 11:52:51;;;;;;;94.00;76.90;;;18.80;1.00;;;;;;5040308;28;20490;-84
2021/09/21 11:55:20;;;;;;;81.43;53.40;;;19.00;1.00;;;;;;5039993;28;20435;-83
2021/09/21 11:57:47;;;;;;;79.00;39.13;;;19.10;1.00;;;;;;5040609;28;20475;-83
2021/09/21 12:00:31;;;;;;;78.30;43.00;;;19.20;1.00;;;;;;5023922;28;20396;-83
2021/09/21 12:03:18;;;;;;;86.40;64.80;;;19.40;1.00;;;;;;5041746;28;20387;-83
2021/09/21 12:05:46;;;;;;;117.67;106.40;;;19.70;1.00;;;;;;5021597;28;20392;-82
2021/09/21 12:08:16;;;;;;;117.03;105.67;;;20.00;1.00;;;;;;5022604;28;20423;-83
2021/09/21 12:11:05;;;;;;;150.07;137.77;;;20.00;1.00;;;;;;5022028;28;20459;-83
2021/09/21 12:13:30;;;;;;;149.00;136.57;;;20.00;1.00;;;;;;5010930;28;20513;-83
2021/09/21 12:16:00;;;;;;;92.17;80.17;;;20.00;1.00;;;;;;5023601;28;20400;-84
2021/09/21 12:18:28;;;;;;;137.10;125.23;;;20.10;1.00;;;;;;5023295;28;20204;-83
2021/09/21 12:21:00;;;;;;;91.30;64.83;;;20.20;1.00;;;;;;5039030;28;20911;-83
2021/09/21 12:23:28;;;;;;;84.90;60.10;;;20.30;1.00;;;;;;5021669;28;20935;-83
2021/09/21 12:25:59;;;;;;;88.07;65.73;;;20.20;1.00;;;;;;5038719;28;20444;-83
2021/09/21 12:28:30;;;;;;;107.93;97.33;;;20.20;1.00;;;;;;5021086;28;20443;-83
2021/09/21 12:30:59;;;;;;;147.43;135.43;;;20.00;1.00;;;;;;5021658;28;20400;-83
2021/09/21 12:33:24;;;;;;;85.37;61.60;;;19.90;1.00;;;;;;5021804;28;20440;-83
2021/09/21 12:35:52;;;;;;;89.70;70.73;;;19.90;1.00;;;;;;5038651;28;20431;-83
2021/09/21 12:38:23;;;;;;;83.17;56.00;;;19.80;1.00;;;;;;5038634;28;20200;-83
2021/09/21 12:40:58;;;;;;;98.13;82.27;;;19.80;1.00;;;;;;5020888;28;20484;-83
2021/09/21 12:43:29;;;;;;;102.23;91.47;;;19.60;1.00;;;;;;5020732;28;20408;-83
2021/09/21 12:46:02;;;;;;;152.83;140.63;;;19.50;1.00;;;;;;5021017;28;20458;-83
2021/09/21 12:48:36;;;;;;;176.40;163.03;;;19.60;1.00;;;;;;5039225;28;20390;-83
2021/09/21 12:51:04;;;;;;;85.73;60.83;;;19.90;1.00;;;;;;5039208;28;20409;-83
2021/09/21 12:53:31;;;;;;;122.90;111.47;;;20.10;1.00;;;;;;5038915;28;20445;-83
2021/09/21 12:56:11;;;;;;;96.27;85.77;;;20.00;1.00;;;;;;5038768;28;20439;-83